Executive Park, Georgia
Current Conditions -  °F | °C
As of 7:53 PM on Friday 24 Oct 2014 (Local Time) from KPDK Reporting Station
Clear Clear  
Wind Chill: 60°   Ceiling: Unl
Heat Index: 60°   Visibility: 10mi
Dew Point: 42°   Wind: 3mph
Humidity: 51%   Direction: 290°WNW
Pressure: 30.02"   Gusts: NA
Location:  33.8301°N, 84.3353°W
Report Text: KPDK 242353Z 29003KT 10SM CLR 16/06 A3002 RMK AO2 SLP167 T01560056 10228 20156 53005
Loading
Personal Weather Stations






























Interactive Weather Map
Tropical Storm Tracking
New forecast layout! Learn more

10-Day Weather Forecast

Advertisements
Track Severe Weather on mobile